Time;durP1;ratioP1;P1;durP2;ratioP2;P2;SDS_P1;SDS_P2;PMS_P1;PMS_P2;Temp;Humidity;BMP_temperature;BMP_pressure;BME280_temperature;BME280_humidity;BME280_pressure;Samples;Min_cycle;Max_cycle;Signal;HPM_P1;HPM_P2
2023/10/27 00:02:03;;;;;;;18.80;4.38;;;;;;;;;;5101769;28;20828;-77
2023/10/27 00:04:29;;;;;;;18.63;4.18;;;;;;;;;;5092832;28;20401;-76
2023/10/27 00:06:56;;;;;;;18.73;5.10;;;;;;;;;;5097227;28;20423;-77
2023/10/27 00:09:23;;;;;;;21.40;3.90;;;;;;;;;;5101687;28;20516;-76
2023/10/27 00:11:49;;;;;;;20.00;4.80;;;;;;;;;;5104905;28;20451;-78
2023/10/27 00:14:16;;;;;;;19.70;4.20;;;;;;;;;;5103655;28;20404;-78
2023/10/27 00:16:43;;;;;;;20.52;4.00;;;;;;;;;;5104536;28;20400;-77
2023/10/27 00:19:11;;;;;;;19.93;3.90;;;;;;;;;;5103027;28;20410;-79
2023/10/27 00:21:37;;;;;;;18.90;4.00;;;;;;;;;;5104098;28;20449;-78
2023/10/27 00:24:04;;;;;;;17.70;3.85;;;;;;;;;;5102177;28;20436;-76
2023/10/27 00:26:31;;;;;;;22.55;3.92;;;;;;;;;;5102393;28;20412;-76
2023/10/27 00:28:57;;;;;;;19.70;4.00;;;;;;;;;;5089392;28;20444;-77
2023/10/27 00:31:24;;;;;;;20.75;3.40;;;;;;;;;;5103846;28;20794;-78
2023/10/27 00:33:51;;;;;;;17.42;3.70;;;;;;;;;;5101624;28;20426;-77
2023/10/27 00:36:19;;;;;;;18.67;3.90;;;;;;;;;;5102534;28;20403;-76
2023/10/27 00:38:50;;;;;;;23.50;3.72;;;;;;;;;;5108618;28;20396;-75
2023/10/27 00:41:17;;;;;;;20.70;4.55;;;;;;;;;;5099776;28;20469;-75
2023/10/27 00:43:43;;;;;;;18.20;3.00;;;;;;;;;;5110782;28;20509;-76
2023/10/27 00:46:10;;;;;;;26.73;4.00;;;;;;;;;;5100818;28;20406;-76
2023/10/27 00:48:37;;;;;;;22.30;3.80;;;;;;;;;;5082660;28;20515;-78
2023/10/27 00:51:05;;;;;;;19.95;3.47;;;;;;;;;;5091893;28;20425;-78
2023/10/27 00:53:33;;;;;;;21.63;3.60;;;;;;;;;;5099490;28;20398;-76
2023/10/27 00:56:00;;;;;;;21.08;4.00;;;;;;;;;;5101344;28;20440;-76
2023/10/27 00:58:27;;;;;;;22.20;3.53;;;;;;;;;;5098337;28;20440;-78
2023/10/27 01:00:55;;;;;;;20.92;3.53;;;;;;;;;;5105017;28;20449;-77
2023/10/27 01:03:21;;;;;;;25.07;3.70;;;;;;;;;;5083566;28;20471;-76
2023/10/27 01:05:48;;;;;;;24.33;3.83;;;;;;;;;;5100821;28;20498;-76
2023/10/27 01:08:14;;;;;;;20.55;3.60;;;;;;;;;;5091880;28;20413;-76
2023/10/27 01:10:42;;;;;;;21.63;3.35;;;;;;;;;;5081583;28;20453;-76
2023/10/27 01:13:09;;;;;;;21.60;3.50;;;;;;;;;;5091472;28;20416;-76
2023/10/27 01:15:36;;;;;;;22.45;2.90;;;;;;;;;;5085208;28;20422;-76
2023/10/27 01:18:03;;;;;;;21.70;2.75;;;;;;;;;;5097844;28;20469;-77
2023/10/27 01:20:29;;;;;;;21.60;4.53;;;;;;;;;;5092428;28;20497;-77
2023/10/27 01:23:01;;;;;;;23.10;4.00;;;;;;;;;;5099492;28;20416;-76
2023/10/27 01:25:28;;;;;;;20.92;3.00;;;;;;;;;;5102561;28;20418;-76
2023/10/27 01:27:56;;;;;;;18.85;2.90;;;;;;;;;;5098000;28;20760;-75
2023/10/27 01:30:23;;;;;;;23.33;4.60;;;;;;;;;;5084202;28;20414;-76
2023/10/27 01:32:50;;;;;;;20.70;3.17;;;;;;;;;;5098984;28;20524;-78
2023/10/27 01:35:17;;;;;;;20.88;3.03;;;;;;;;;;5096696;28;20445;-76
2023/10/27 01:37:43;;;;;;;19.88;3.30;;;;;;;;;;5100515;28;20412;-76
2023/10/27 01:40:12;;;;;;;18.30;2.80;;;;;;;;;;5108531;28;20428;-75
2023/10/27 01:42:38;;;;;;;20.08;3.00;;;;;;;;;;5080978;28;20421;-76
2023/10/27 01:45:06;;;;;;;22.70;3.50;;;;;;;;;;5100233;28;20414;-76
2023/10/27 01:47:33;;;;;;;18.17;3.33;;;;;;;;;;5085278;28;20435;-75
2023/10/27 01:49:59;;;;;;;25.38;3.20;;;;;;;;;;5101410;28;20404;-76
2023/10/27 01:52:26;;;;;;;21.25;4.60;;;;;;;;;;5099006;28;20458;-76
2023/10/27 01:54:57;;;;;;;21.13;3.05;;;;;;;;;;5102849;28;20420;-76
2023/10/27 01:57:26;;;;;;;19.87;3.37;;;;;;;;;;5101994;28;20486;-75
2023/10/27 01:59:52;;;;;;;19.23;2.90;;;;;;;;;;5098422;28;20402;-75
2023/10/27 02:02:19;;;;;;;21.77;4.10;;;;;;;;;;5081475;28;20444;-76
2023/10/27 02:04:46;;;;;;;17.15;2.80;;;;;;;;;;5101600;28;20814;-75
2023/10/27 02:07:14;;;;;;;19.63;2.80;;;;;;;;;;5100207;28;20436;-75
2023/10/27 02:09:42;;;;;;;19.98;3.20;;;;;;;;;;5099449;28;20418;-76
2023/10/27 02:12:10;;;;;;;20.30;3.30;;;;;;;;;;5099385;28;20430;-76
2023/10/27 02:14:38;;;;;;;20.67;3.33;;;;;;;;;;5082810;28;20852;-76
2023/10/27 02:17:05;;;;;;;18.23;3.40;;;;;;;;;;5101792;28;20408;-75
2023/10/27 02:19:31;;;;;;;19.52;3.28;;;;;;;;;;5102745;28;20408;-76
2023/10/27 02:21:59;;;;;;;19.73;3.10;;;;;;;;;;5100858;28;20392;-75
2023/10/27 02:24:27;;;;;;;21.23;3.35;;;;;;;;;;5103126;28;20407;-77
2023/10/27 02:26:54;;;;;;;17.63;2.50;;;;;;;;;;5098515;28;20405;-75
2023/10/27 02:29:21;;;;;;;18.42;2.83;;;;;;;;;;5090777;28;20734;-75
2023/10/27 02:31:49;;;;;;;22.90;3.40;;;;;;;;;;5088276;28;20781;-75
2023/10/27 02:34:16;;;;;;;18.20;2.90;;;;;;;;;;5096766;27;20527;-75
2023/10/27 02:36:43;;;;;;;19.00;2.90;;;;;;;;;;5100681;28;20406;-75
2023/10/27 02:39:09;;;;;;;20.17;3.40;;;;;;;;;;5107177;28;20403;-76
2023/10/27 02:41:36;;;;;;;20.37;3.20;;;;;;;;;;5104120;28;20420;-75
2023/10/27 02:44:03;;;;;;;20.20;3.20;;;;;;;;;;5105157;28;20398;-75
2023/10/27 02:46:30;;;;;;;20.23;3.25;;;;;;;;;;5098173;28;20402;-77
2023/10/27 02:48:58;;;;;;;17.75;3.13;;;;;;;;;;5102097;28;20400;-76
2023/10/27 02:51:25;;;;;;;20.40;3.20;;;;;;;;;;5097933;28;20890;-76
2023/10/27 02:53:51;;;;;;;19.70;4.40;;;;;;;;;;5090758;28;20420;-75
2023/10/27 02:56:18;;;;;;;20.08;3.40;;;;;;;;;;5078921;28;20993;-77
2023/10/27 02:58:45;;;;;;;21.48;3.20;;;;;;;;;;5088866;28;20499;-76
2023/10/27 03:01:15;;;;;;;19.88;3.58;;;;;;;;;;5099774;28;20515;-75
2023/10/27 03:03:42;;;;;;;17.25;2.97;;;;;;;;;;5106630;28;20408;-77
2023/10/27 03:06:10;;;;;;;;;;;;;;;;;;5085950;28;20454;-77
2023/10/27 03:08:38;;;;;;;21.20;3.38;;;;;;;;;;5082298;28;20908;-76
2023/10/27 03:11:05;;;;;;;21.52;3.10;;;;;;;;;;5096316;28;20444;-76
2023/10/27 03:13:33;;;;;;;21.63;3.45;;;;;;;;;;5098733;28;20396;-77
2023/10/27 03:16:00;;;;;;;20.70;3.37;;;;;;;;;;5102896;28;20892;-77
2023/10/27 03:18:27;;;;;;;17.40;3.30;;;;;;;;;;5104279;28;20453;-77
2023/10/27 03:20:54;;;;;;;22.40;3.70;;;;;;;;;;5102783;28;20897;-76
2023/10/27 03:23:21;;;;;;;18.30;3.30;;;;;;;;;;5102325;28;20410;-76
2023/10/27 03:25:48;;;;;;;20.40;3.50;;;;;;;;;;5101422;28;20507;-76
2023/10/27 03:28:15;;;;;;;18.77;3.00;;;;;;;;;;5103219;28;20741;-77
2023/10/27 03:30:42;;;;;;;21.60;3.08;;;;;;;;;;5103322;28;20406;-76
2023/10/27 03:33:09;;;;;;;19.10;4.33;;;;;;;;;;5085472;28;20460;-76
2023/10/27 03:35:37;;;;;;;;;;;;;;;;;;5108563;28;20950;-75
2023/10/27 03:38:04;;;;;;;18.20;3.38;;;;;;;;;;5104838;28;20458;-77
2023/10/27 03:40:31;;;;;;;20.70;3.00;;;;;;;;;;5104527;28;20408;-77
2023/10/27 03:42:59;;;;;;;18.42;2.85;;;;;;;;;;5094097;28;20979;-77
2023/10/27 03:45:25;;;;;;;20.43;2.90;;;;;;;;;;5093698;28;20471;-77
2023/10/27 03:47:52;;;;;;;22.00;3.63;;;;;;;;;;5098836;28;20453;-78
2023/10/27 03:50:19;;;;;;;17.42;3.10;;;;;;;;;;5101892;28;20418;-77
2023/10/27 03:52:46;;;;;;;20.88;3.00;;;;;;;;;;5102894;28;20410;-77
2023/10/27 03:55:12;;;;;;;19.97;2.90;;;;;;;;;;5093298;28;20456;-77
2023/10/27 03:57:40;;;;;;;21.70;3.13;;;;;;;;;;5103136;28;20424;-77
2023/10/27 04:00:08;;;;;;;18.27;2.80;;;;;;;;;;5097227;28;20832;-76
2023/10/27 04:02:38;;;;;;;20.20;3.00;;;;;;;;;;5106926;28;20442;-77
2023/10/27 04:05:05;;;;;;;20.15;3.10;;;;;;;;;;5099636;28;20965;-77
2023/10/27 04:07:31;;;;;;;20.55;3.53;;;;;;;;;;5090905;28;20510;-77
2023/10/27 04:09:58;;;;;;;21.37;3.90;;;;;;;;;;5100587;28;20404;-76
2023/10/27 04:12:25;;;;;;;24.13;3.50;;;;;;;;;;5094185;28;20431;-77
2023/10/27 04:14:51;;;;;;;20.20;3.30;;;;;;;;;;5101736;28;20899;-77
2023/10/27 04:17:19;;;;;;;18.17;2.90;;;;;;;;;;5100209;28;20881;-79
2023/10/27 04:19:45;;;;;;;21.02;3.00;;;;;;;;;;5092848;28;20419;-77
2023/10/27 04:22:14;;;;;;;19.95;3.00;;;;;;;;;;5103391;28;20411;-79
2023/10/27 04:24:41;;;;;;;22.02;3.22;;;;;;;;;;5104998;28;20432;-79
2023/10/27 04:27:07;;;;;;;17.90;2.88;;;;;;;;;;5101480;28;20733;-80
2023/10/27 04:29:34;;;;;;;24.10;4.10;;;;;;;;;;5108657;28;20406;-77
2023/10/27 04:32:02;;;;;;;20.00;3.30;;;;;;;;;;5084377;28;20475;-78
2023/10/27 04:34:30;;;;;;;18.70;2.70;;;;;;;;;;5099850;28;20414;-76
2023/10/27 04:37:00;;;;;;;21.15;3.50;;;;;;;;;;5103089;28;20408;-77
2023/10/27 04:39:27;;;;;;;19.70;3.30;;;;;;;;;;5101899;28;20406;-78
2023/10/27 04:41:54;;;;;;;19.33;2.80;;;;;;;;;;5107801;28;20417;-77
2023/10/27 04:44:23;;;;;;;18.48;3.00;;;;;;;;;;5103295;28;20409;-77
2023/10/27 04:46:50;;;;;;;18.90;3.42;;;;;;;;;;5099239;28;20398;-77
2023/10/27 04:49:17;;;;;;;21.58;3.88;;;;;;;;;;5102447;28;20445;-77
2023/10/27 04:51:45;;;;;;;26.00;3.70;;;;;;;;;;5103888;28;20406;-77
2023/10/27 04:54:12;;;;;;;17.92;3.97;;;;;;;;;;5099103;28;21255;-76
2023/10/27 04:56:38;;;;;;;20.85;3.20;;;;;;;;;;5091894;28;20422;-77
2023/10/27 04:59:05;;;;;;;20.52;3.15;;;;;;;;;;5092788;28;20410;-76
2023/10/27 05:01:31;;;;;;;20.03;3.67;;;;;;;;;;5100494;28;20440;-76
2023/10/27 05:03:58;;;;;;;18.10;3.60;;;;;;;;;;5100513;28;20762;-77
2023/10/27 05:06:25;;;;;;;19.43;3.30;;;;;;;;;;5099266;28;20406;-79
2023/10/27 05:08:53;;;;;;;24.02;4.00;;;;;;;;;;5091927;28;20436;-78
2023/10/27 05:11:20;;;;;;;20.45;4.10;;;;;;;;;;5099198;28;20421;-80
2023/10/27 05:13:46;;;;;;;19.23;3.40;;;;;;;;;;5084333;28;20433;-78
2023/10/27 05:16:13;;;;;;;18.65;3.95;;;;;;;;;;5099888;28;20432;-80
2023/10/27 05:18:40;;;;;;;22.67;3.75;;;;;;;;;;5085888;28;20416;-80
2023/10/27 05:21:13;;;;;;;22.45;4.20;;;;;;;;;;5092589;28;20417;-80
2023/10/27 05:23:40;;;;;;;22.65;3.85;;;;;;;;;;5105746;28;20422;-81
2023/10/27 05:26:07;;;;;;;31.50;5.10;;;;;;;;;;5098580;28;20408;-81
2023/10/27 05:28:34;;;;;;;22.88;4.70;;;;;;;;;;5101547;28;20500;-82
2023/10/27 05:31:01;;;;;;;23.27;4.00;;;;;;;;;;5099653;28;20463;-82
2023/10/27 05:33:27;;;;;;;24.33;4.50;;;;;;;;;;5104110;28;20404;-83
2023/10/27 05:35:54;;;;;;;24.60;4.38;;;;;;;;;;5104743;28;20413;-81
2023/10/27 05:38:20;;;;;;;22.85;4.22;;;;;;;;;;5100962;28;20415;-82
2023/10/27 05:40:47;;;;;;;26.65;4.70;;;;;;;;;;5098454;28;20404;-83
2023/10/27 05:43:17;;;;;;;24.67;5.35;;;;;;;;;;5101509;28;20465;-83
2023/10/27 05:45:44;;;;;;;24.25;5.30;;;;;;;;;;5096363;28;20408;-83
2023/10/27 05:48:10;;;;;;;22.10;5.50;;;;;;;;;;5102204;28;20401;-84
2023/10/27 05:50:37;;;;;;;25.10;4.38;;;;;;;;;;5100102;28;20417;-85
2023/10/27 05:53:04;;;;;;;22.63;4.40;;;;;;;;;;5102358;28;20414;-84
2023/10/27 05:55:30;;;;;;;22.67;4.80;;;;;;;;;;5098687;28;20406;-84
2023/10/27 05:57:57;;;;;;;20.90;4.70;;;;;;;;;;5102491;28;20414;-82
2023/10/27 06:00:25;;;;;;;26.00;5.17;;;;;;;;;;5105845;28;20408;-84
2023/10/27 06:02:53;;;;;;;23.02;4.90;;;;;;;;;;5102796;27;20400;-84
2023/10/27 06:05:20;;;;;;;21.63;5.03;;;;;;;;;;5106132;28;20969;-84
2023/10/27 06:07:47;;;;;;;22.30;4.77;;;;;;;;;;5101827;28;20545;-85
2023/10/27 06:10:14;;;;;;;24.25;4.68;;;;;;;;;;5103468;28;20404;-85
2023/10/27 06:12:40;;;;;;;23.23;4.68;;;;;;;;;;5099064;28;20427;-85
2023/10/27 06:15:07;;;;;;;21.50;4.60;;;;;;;;;;5099197;28;20492;-84
2023/10/27 06:17:36;;;;;;;21.38;4.25;;;;;;;;;;5098620;28;20418;-83
2023/10/27 06:20:02;;;;;;;23.25;4.32;;;;;;;;;;5102846;28;20490;-84
2023/10/27 06:22:43;;;;;;;25.63;4.70;;;;;;;;;;5107591;28;20414;-84
2023/10/27 06:25:10;;;;;;;20.52;5.30;;;;;;;;;;5101675;28;20501;-84
2023/10/27 06:27:37;;;;;;;25.85;5.50;;;;;;;;;;5107783;28;20440;-85
2023/10/27 06:30:05;;;;;;;27.15;6.20;;;;;;;;;;5090169;28;20416;-86
2023/10/27 06:32:31;;;;;;;24.88;5.20;;;;;;;;;;5094744;28;20934;-85
2023/10/27 06:34:59;;;;;;;25.02;4.88;;;;;;;;;;5105387;28;20523;-85
2023/10/27 06:37:26;;;;;;;21.70;4.68;;;;;;;;;;5097786;28;20414;-83
2023/10/27 06:39:58;;;;;;;24.45;5.70;;;;;;;;;;5099118;28;20403;-85
2023/10/27 06:42:25;;;;;;;22.83;4.90;;;;;;;;;;5078102;28;20452;-85
2023/10/27 06:44:52;;;;;;;24.42;5.20;;;;;;;;;;5099672;28;20499;-84
2023/10/27 06:47:18;;;;;;;25.53;5.37;;;;;;;;;;5099491;28;20490;-85
2023/10/27 06:49:48;;;;;;;22.95;4.90;;;;;;;;;;5087499;28;20412;-85
2023/10/27 06:52:16;;;;;;;22.63;4.40;;;;;;;;;;5099418;28;20398;-85
2023/10/27 06:54:43;;;;;;;26.20;5.95;;;;;;;;;;5099760;28;20411;-84
2023/10/27 06:57:10;;;;;;;24.20;6.00;;;;;;;;;;5100086;28;20429;-84
2023/10/27 06:59:37;;;;;;;24.65;5.28;;;;;;;;;;5096618;28;20410;-85
2023/10/27 07:02:03;;;;;;;22.70;4.75;;;;;;;;;;5082024;28;20846;-83
2023/10/27 07:04:30;;;;;;;21.80;5.22;;;;;;;;;;5084654;28;20405;-83
2023/10/27 07:06:57;;;;;;;21.02;4.80;;;;;;;;;;5086218;28;20427;-83
2023/10/27 07:09:26;;;;;;;22.95;4.47;;;;;;;;;;5097249;28;20489;-82
2023/10/27 07:11:53;;;;;;;21.35;4.63;;;;;;;;;;5099070;28;20938;-84
2023/10/27 07:14:20;;;;;;;26.08;4.90;;;;;;;;;;5099798;28;20912;-84
2023/10/27 07:16:51;;;;;;;20.73;4.70;;;;;;;;;;5098483;28;20772;-83
2023/10/27 07:19:19;;;;;;;21.75;4.80;;;;;;;;;;5096699;28;20418;-83
2023/10/27 07:21:47;;;;;;;21.45;4.40;;;;;;;;;;5095144;28;20425;-83
2023/10/27 07:24:14;;;;;;;22.58;3.95;;;;;;;;;;5098484;28;20406;-83
2023/10/27 07:26:42;;;;;;;21.35;4.15;;;;;;;;;;5099740;28;20945;-82
2023/10/27 07:29:08;;;;;;;20.23;4.65;;;;;;;;;;5084155;28;20425;-81
2023/10/27 07:31:35;;;;;;;20.58;4.00;;;;;;;;;;5099791;28;20443;-81
2023/10/27 07:34:02;;;;;;;21.52;3.95;;;;;;;;;;5094590;28;20896;-82
2023/10/27 07:36:29;;;;;;;21.83;3.92;;;;;;;;;;5084844;28;20931;-82
2023/10/27 07:38:57;;;;;;;18.00;3.55;;;;;;;;;;5099722;28;20406;-81
2023/10/27 07:41:23;;;;;;;20.73;4.00;;;;;;;;;;5097719;28;20405;-81
2023/10/27 07:43:51;;;;;;;20.58;3.88;;;;;;;;;;5097512;28;20426;-81
2023/10/27 07:46:18;;;;;;;22.58;3.90;;;;;;;;;;5096529;28;20481;-81
2023/10/27 07:48:45;;;;;;;19.50;4.05;;;;;;;;;;5100358;28;20420;-80
2023/10/27 07:51:11;;;;;;;22.05;3.80;;;;;;;;;;5096704;28;20420;-81
2023/10/27 07:53:38;;;;;;;20.20;4.15;;;;;;;;;;5097629;28;20405;-81
2023/10/27 07:56:08;;;;;;;24.80;4.73;;;;;;;;;;5098616;28;20607;-82
2023/10/27 07:58:35;;;;;;;22.08;4.80;;;;;;;;;;5098910;28;20418;-81
2023/10/27 08:01:05;;;;;;;21.23;4.20;;;;;;;;;;5082405;28;20404;-82
2023/10/27 08:03:33;;;;;;;18.73;3.50;;;;;;;;;;5108951;28;20465;-83
2023/10/27 08:06:02;;;;;;;21.65;4.00;;;;;;;;;;5105513;28;20441;-81
2023/10/27 08:08:28;;;;;;;19.90;4.50;;;;;;;;;;5110846;28;20411;-81
2023/10/27 08:10:55;;;;;;;18.52;4.22;;;;;;;;;;5108207;28;20433;-81
2023/10/27 08:13:22;;;;;;;17.50;3.88;;;;;;;;;;5101662;28;20874;-80
2023/10/27 08:15:49;;;;;;;19.67;3.40;;;;;;;;;;5100588;28;20486;-80
2023/10/27 08:18:18;;;;;;;17.38;3.60;;;;;;;;;;5088483;28;20495;-81
2023/10/27 08:20:44;;;;;;;19.20;3.92;;;;;;;;;;5100114;28;20839;-82
2023/10/27 08:23:11;;;;;;;18.33;3.92;;;;;;;;;;5100312;28;20885;-81
2023/10/27 08:25:37;;;;;;;20.08;3.20;;;;;;;;;;5103376;28;20407;-81
2023/10/27 08:28:04;;;;;;;17.73;3.40;;;;;;;;;;5092045;28;20488;-81
2023/10/27 08:30:31;;;;;;;21.17;4.05;;;;;;;;;;5099299;28;20393;-80
2023/10/27 08:32:58;;;;;;;22.33;3.50;;;;;;;;;;5102406;28;20421;-81
2023/10/27 08:35:26;;;;;;;17.70;3.30;;;;;;;;;;5108653;28;20410;-81
2023/10/27 08:37:52;;;;;;;18.75;3.50;;;;;;;;;;5084105;28;20438;-80
2023/10/27 08:40:19;;;;;;;18.20;2.90;;;;;;;;;;5101591;28;20410;-80
2023/10/27 08:42:46;;;;;;;20.05;3.00;;;;;;;;;;5102297;28;20406;-80
2023/10/27 08:45:13;;;;;;;17.80;3.10;;;;;;;;;;5099544;28;20969;-80
2023/10/27 08:47:39;;;;;;;18.75;3.60;;;;;;;;;;5103745;28;20965;-80
2023/10/27 08:50:06;;;;;;;17.83;3.00;;;;;;;;;;5087265;28;20528;-81
2023/10/27 08:52:34;;;;;;;21.63;2.92;;;;;;;;;;5100680;28;20505;-82
2023/10/27 08:55:01;;;;;;;18.40;2.80;;;;;;;;;;5107611;28;20411;-81
2023/10/27 08:57:28;;;;;;;19.90;2.80;;;;;;;;;;5105650;28;20465;-81
2023/10/27 08:59:55;;;;;;;19.02;2.63;;;;;;;;;;5100728;28;20836;-81
2023/10/27 09:02:29;;;;;;;18.83;2.90;;;;;;;;;;5101525;28;20413;-82
2023/10/27 09:05:03;;;;;;;15.93;2.63;;;;;;;;;;5095057;28;20406;-80
2023/10/27 09:07:30;;;;;;;17.35;3.65;;;;;;;;;;5097383;28;20459;-80
2023/10/27 09:09:59;;;;;;;16.52;2.72;;;;;;;;;;5100048;28;20738;-80
2023/10/27 09:12:27;;;;;;;16.20;2.80;;;;;;;;;;5083564;28;20496;-80
2023/10/27 09:15:04;;;;;;;16.57;3.60;;;;;;;;;;5100595;28;20503;-80
2023/10/27 09:17:48;;;;;;;16.90;2.70;;;;;;;;;;5102257;28;20434;-80
2023/10/27 09:20:16;;;;;;;16.90;2.90;;;;;;;;;;5099487;28;20754;-80
2023/10/27 09:22:54;;;;;;;16.90;2.63;;;;;;;;;;5103556;28;20492;-80
2023/10/27 09:25:25;;;;;;;17.48;2.95;;;;;;;;;;5099832;28;20486;-81
2023/10/27 09:27:52;;;;;;;18.67;2.63;;;;;;;;;;5109678;28;21074;-83
2023/10/27 09:30:24;;;;;;;17.75;3.15;;;;;;;;;;5090322;28;20965;-81
2023/10/27 09:32:51;;;;;;;19.50;2.70;;;;;;;;;;5097873;28;20406;-82
2023/10/27 09:35:18;;;;;;;16.88;2.70;;;;;;;;;;5100758;28;20759;-81
2023/10/27 09:37:49;;;;;;;16.75;2.33;;;;;;;;;;5085386;28;20460;-80
2023/10/27 09:40:16;;;;;;;16.45;2.60;;;;;;;;;;5100379;28;20511;-81
2023/10/27 09:42:44;;;;;;;17.25;2.70;;;;;;;;;;5090425;28;20905;-80
2023/10/27 09:45:11;;;;;;;16.87;2.60;;;;;;;;;;5100243;28;20860;-81
2023/10/27 09:47:46;;;;;;;19.30;3.20;;;;;;;;;;5103317;28;20451;-80
2023/10/27 09:50:13;;;;;;;16.40;2.80;;;;;;;;;;5102610;27;20406;-80
2023/10/27 09:52:43;;;;;;;18.92;3.63;;;;;;;;;;5102871;28;20419;-80
2023/10/27 09:55:11;;;;;;;16.13;2.65;;;;;;;;;;5102968;28;20410;-79
2023/10/27 09:57:45;;;;;;;19.42;2.50;;;;;;;;;;5090983;28;20422;-79
2023/10/27 10:00:15;;;;;;;16.20;2.33;;;;;;;;;;5097141;28;20888;-80
2023/10/27 10:02:42;;;;;;;17.05;2.47;;;;;;;;;;5087414;28;20401;-79
2023/10/27 10:05:11;;;;;;;16.45;2.10;;;;;;;;;;5085205;28;20485;-80
2023/10/27 10:07:41;;;;;;;17.60;2.80;;;;;;;;;;5098912;28;20402;-80
2023/10/27 10:10:22;;;;;;;15.18;1.73;;;;;;;;;;5098254;28;20408;-80
2023/10/27 10:13:14;;;;;;;15.50;1.87;;;;;;;;;;5098623;28;20491;-79
2023/10/27 10:15:42;;;;;;;18.20;2.43;;;;;;;;;;5104345;28;20487;-80
2023/10/27 10:18:31;;;;;;;15.30;2.10;;;;;;;;;;5101641;28;20418;-80
2023/10/27 10:21:01;;;;;;;17.10;2.30;;;;;;;;;;5103227;28;20401;-81
2023/10/27 10:23:52;;;;;;;18.95;2.70;;;;;;;;;;5098362;28;20410;-81
2023/10/27 10:26:18;;;;;;;16.67;2.47;;;;;;;;;;5069806;28;20450;-82
2023/10/27 10:28:46;;;;;;;17.07;2.80;;;;;;;;;;5107999;28;20496;-80
2023/10/27 10:31:24;;;;;;;15.90;2.22;;;;;;;;;;5090026;28;20412;-80
2023/10/27 10:34:08;;;;;;;17.35;2.70;;;;;;;;;;5098360;28;20400;-80
2023/10/27 10:36:34;;;;;;;16.40;2.40;;;;;;;;;;5101553;28;20491;-81
2023/10/27 10:39:04;;;;;;;16.92;2.40;;;;;;;;;;5104795;28;20443;-81
2023/10/27 10:41:53;;;;;;;17.83;3.70;;;;;;;;;;5102759;28;20411;-80
2023/10/27 10:44:19;;;;;;;18.60;3.10;;;;;;;;;;5103523;28;20497;-81
2023/10/27 10:46:49;;;;;;;15.85;2.70;;;;;;;;;;5082748;28;20438;-82
2023/10/27 10:49:21;;;;;;;16.70;2.90;;;;;;;;;;5090472;28;20762;-81
2023/10/27 10:51:50;;;;;;;17.50;3.30;;;;;;;;;;5107467;28;20959;-80
2023/10/27 10:54:17;;;;;;;19.60;4.38;;;;;;;;;;5106534;28;20773;-80
2023/10/27 10:56:44;;;;;;;19.23;4.50;;;;;;;;;;5101735;28;20428;-81
2023/10/27 10:59:18;;;;;;;21.05;6.45;;;;;;;;;;5099598;28;20405;-81
2023/10/27 11:01:45;;;;;;;23.20;7.32;;;;;;;;;;5089115;28;21162;-80
2023/10/27 11:04:14;;;;;;;23.48;6.30;;;;;;;;;;5100699;28;20392;-80
2023/10/27 11:06:41;;;;;;;24.20;7.15;;;;;;;;;;5083556;28;20821;-80
2023/10/27 11:09:07;;;;;;;26.90;5.67;;;;;;;;;;5093407;28;20568;-79
2023/10/27 11:11:34;;;;;;;25.77;5.75;;;;;;;;;;5100270;28;20409;-81
2023/10/27 11:14:13;;;;;;;18.00;4.25;;;;;;;;;;5089820;28;20406;-79
2023/10/27 11:16:40;;;;;;;25.63;4.20;;;;;;;;;;5100892;28;20870;-78
2023/10/27 11:19:14;;;;;;;20.02;4.47;;;;;;;;;;5102958;28;20405;-79
2023/10/27 11:21:42;;;;;;;22.95;4.97;;;;;;;;;;5098702;28;20398;-79
2023/10/27 11:24:09;;;;;;;18.73;3.70;;;;;;;;;;5095843;28;20435;-78
2023/10/27 11:26:38;;;;;;;19.30;3.55;;;;;;;;;;5079168;28;20913;-78
2023/10/27 11:29:06;;;;;;;19.75;3.40;;;;;;;;;;5101076;28;20497;-78
2023/10/27 11:31:39;;;;;;;17.58;3.55;;;;;;;;;;5100556;28;20479;-77
2023/10/27 11:34:07;;;;;;;21.52;3.85;;;;;;;;;;5091582;28;20414;-78
2023/10/27 11:36:39;;;;;;;21.17;3.80;;;;;;;;;;5106712;28;20411;-78
2023/10/27 11:39:12;;;;;;;19.37;3.30;;;;;;;;;;5095969;28;20398;-76
2023/10/27 11:41:39;;;;;;;21.23;3.00;;;;;;;;;;5103636;28;20443;-77
2023/10/27 11:44:06;;;;;;;19.17;2.60;;;;;;;;;;5109580;28;20405;-77
2023/10/27 11:46:33;;;;;;;16.67;2.70;;;;;;;;;;5112634;28;20423;-78
2023/10/27 11:48:59;;;;;;;19.70;2.70;;;;;;;;;;5109331;28;20390;-77
2023/10/27 11:51:26;;;;;;;17.92;3.17;;;;;;;;;;5093068;28;20458;-77
2023/10/27 11:53:52;;;;;;;17.40;2.80;;;;;;;;;;5104370;28;20912;-77
2023/10/27 11:56:20;;;;;;;17.50;2.60;;;;;;;;;;5100973;28;20415;-76
2023/10/27 11:58:47;;;;;;;17.17;2.10;;;;;;;;;;5111174;28;20421;-77
2023/10/27 12:01:14;;;;;;;18.40;2.17;;;;;;;;;;5112699;28;20403;-79
2023/10/27 12:03:40;;;;;;;16.90;2.60;;;;;;;;;;5105650;28;20431;-79
2023/10/27 12:06:07;;;;;;;19.37;2.70;;;;;;;;;;5114012;28;20400;-79
2023/10/27 12:08:33;;;;;;;17.75;2.20;;;;;;;;;;5113421;28;20402;-80
2023/10/27 12:11:00;;;;;;;20.92;2.75;;;;;;;;;;5102290;28;20407;-80
2023/10/27 12:13:28;;;;;;;18.55;2.90;;;;;;;;;;5103611;28;20405;-81
2023/10/27 12:15:55;;;;;;;21.63;3.30;;;;;;;;;;5104620;28;20897;-80
2023/10/27 12:18:22;;;;;;;19.25;2.67;;;;;;;;;;5102362;28;20503;-82
2023/10/27 12:20:49;;;;;;;19.00;3.00;;;;;;;;;;5086580;28;21013;-81
2023/10/27 12:23:18;;;;;;;18.17;2.50;;;;;;;;;;5102401;28;20404;-81
2023/10/27 12:25:44;;;;;;;20.02;3.00;;;;;;;;;;5099644;28;20398;-80
2023/10/27 12:28:12;;;;;;;18.63;2.90;;;;;;;;;;5085274;28;20750;-82
2023/10/27 12:30:40;;;;;;;25.17;3.83;;;;;;;;;;5107830;28;20400;-81
2023/10/27 12:33:10;;;;;;;18.65;3.58;;;;;;;;;;5101431;28;20497;-81
2023/10/27 12:35:37;;;;;;;18.92;3.00;;;;;;;;;;5104580;28;20407;-80
2023/10/27 12:38:04;;;;;;;19.00;3.35;;;;;;;;;;5099352;28;20427;-79
2023/10/27 12:40:34;;;;;;;17.23;3.10;;;;;;;;;;5100603;28;20455;-81
2023/10/27 12:43:02;;;;;;;21.50;3.10;;;;;;;;;;5108081;28;20496;-81
2023/10/27 12:45:28;;;;;;;21.23;3.20;;;;;;;;;;5109264;28;20400;-81
2023/10/27 12:47:56;;;;;;;16.40;2.80;;;;;;;;;;5099940;28;20398;-80
2023/10/27 12:50:23;;;;;;;20.37;2.30;;;;;;;;;;5097251;28;20413;-82
2023/10/27 12:52:50;;;;;;;20.07;2.80;;;;;;;;;;5102221;28;20420;-80
2023/10/27 12:55:17;;;;;;;17.10;2.20;;;;;;;;;;5101591;28;20398;-80
2023/10/27 12:57:45;;;;;;;20.15;2.30;;;;;;;;;;5102535;28;20418;-81
2023/10/27 13:00:20;;;;;;;17.35;2.45;;;;;;;;;;5103139;28;20422;-80
2023/10/27 13:02:47;;;;;;;17.10;2.60;;;;;;;;;;5099343;28;20411;-80
2023/10/27 13:05:17;;;;;;;15.32;2.28;;;;;;;;;;5100360;28;20514;-80
2023/10/27 13:07:43;;;;;;;18.50;3.03;;;;;;;;;;5102535;28;20408;-81
2023/10/27 13:10:10;;;;;;;19.73;2.30;;;;;;;;;;5091756;28;20417;-81
2023/10/27 13:12:37;;;;;;;16.23;2.00;;;;;;;;;;5096705;28;20406;-81
2023/10/27 13:15:05;;;;;;;17.60;2.30;;;;;;;;;;5108326;28;20450;-81
2023/10/27 13:17:31;;;;;;;16.55;3.00;;;;;;;;;;5101952;28;20420;-82
2023/10/27 13:19:58;;;;;;;16.70;2.13;;;;;;;;;;5083075;28;20428;-81
2023/10/27 13:22:26;;;;;;;19.63;3.20;;;;;;;;;;5103753;28;20404;-80
2023/10/27 13:24:54;;;;;;;17.20;2.40;;;;;;;;;;5107875;28;20883;-80
2023/10/27 13:27:21;;;;;;;18.95;2.92;;;;;;;;;;5091649;28;20905;-79
2023/10/27 13:29:48;;;;;;;16.70;2.75;;;;;;;;;;5098553;28;20461;-80
2023/10/27 13:32:15;;;;;;;19.90;2.50;;;;;;;;;;5104441;28;20453;-80
2023/10/27 13:34:41;;;;;;;18.88;2.10;;;;;;;;;;5098502;28;20413;-79
2023/10/27 13:37:10;;;;;;;21.42;2.30;;;;;;;;;;5102784;28;20400;-80
2023/10/27 13:39:37;;;;;;;17.05;2.30;;;;;;;;;;5104497;28;21044;-78
2023/10/27 13:42:05;;;;;;;18.70;2.60;;;;;;;;;;5100789;28;20508;-79
2023/10/27 13:44:31;;;;;;;21.65;2.83;;;;;;;;;;5103622;28;20469;-82
2023/10/27 13:46:59;;;;;;;19.92;3.80;;;;;;;;;;5101890;28;20940;-80
2023/10/27 13:49:26;;;;;;;18.40;2.17;;;;;;;;;;5102963;28;20480;-80
2023/10/27 13:51:52;;;;;;;19.23;2.30;;;;;;;;;;5104759;28;20408;-80
2023/10/27 13:54:21;;;;;;;16.00;2.20;;;;;;;;;;5088047;28;20513;-78
2023/10/27 13:56:49;;;;;;;18.58;2.50;;;;;;;;;;5105989;28;20398;-81
2023/10/27 13:59:15;;;;;;;17.98;2.83;;;;;;;;;;5115421;28;20834;-80
2023/10/27 14:01:42;;;;;;;17.05;2.10;;;;;;;;;;5101602;28;20445;-81
2023/10/27 14:04:09;;;;;;;16.83;2.30;;;;;;;;;;5099474;28;20412;-80
2023/10/27 14:06:38;;;;;;;18.35;2.70;;;;;;;;;;5105511;28;20448;-80
2023/10/27 14:09:05;;;;;;;16.80;2.20;;;;;;;;;;5095379;28;20739;-80
2023/10/27 14:11:32;;;;;;;19.73;2.65;;;;;;;;;;5107099;28;20500;-82
2023/10/27 14:13:59;;;;;;;17.15;2.38;;;;;;;;;;5101797;28;20475;-81
2023/10/27 14:16:26;;;;;;;17.00;2.05;;;;;;;;;;5090614;28;20408;-82
2023/10/27 14:18:53;;;;;;;19.05;2.53;;;;;;;;;;5085586;28;20425;-82
2023/10/27 14:21:20;;;;;;;19.60;2.50;;;;;;;;;;5102495;28;20402;-82
2023/10/27 14:23:46;;;;;;;18.15;2.65;;;;;;;;;;5086292;28;20884;-81
2023/10/27 14:26:14;;;;;;;16.42;2.40;;;;;;;;;;5107456;28;20447;-81
2023/10/27 14:28:42;;;;;;;17.30;2.60;;;;;;;;;;5097446;28;20774;-82
2023/10/27 14:31:10;;;;;;;17.33;2.90;;;;;;;;;;5083433;28;20438;-82
2023/10/27 14:33:38;;;;;;;18.20;3.10;;;;;;;;;;5099931;28;20477;-82
2023/10/27 14:36:08;;;;;;;19.87;3.30;;;;;;;;;;5093291;28;20503;-81